Ice Star — V2EF5 — position and weather

sailwx.info

Track history (hours):
 
Tides and Currents Weather Stations Pressure Air Temp Water Temp Dewpoint Dewpoint Depression Visibility Wind Speed Wind Dir Waves Ship Positions

Ice Star

Last reported at 2018-Feb-21 07:00 UTC. Time now 2018-Feb-21 19:16 UTC.
Position N 49°54' W 004°38'.

Length 130 m; draft 6.1 m.

Type: Ship (hazmat cat A). MMSI: 305413000.

Date/timePositionNaut miles runAvg speedWind from/ knotsBaromVisibWave heightAir tempDewpointWater temp
2018-Feb-21 07:00N 49°54' W 004°38'611.3
2018-Feb-21 06:30N 49°55' W 004°29'611.6
2018-Feb-21 05:59N 49°56' W 004°20'2311.3
2018-Feb-21 03:57N 49°58' W 003°44'512.2
2018-Feb-21 03:30N 49°58' W 003°36'612.2
2018-Feb-21 03:00N 49°59' W 003°27'712.1
2018-Feb-21 02:26N 49°60' W 003°16'512.5
2018-Feb-21 02:00N 50°00' W 003°08'612.7
2018-Feb-21 01:30N 50°01' W 002°58'612.4
2018-Feb-21 01:00N 50°02' W 002°48'612.6
2018-Feb-21 00:30N 50°04' W 002°39'8912.2
2018-Feb-20 17:09N 50°27' W 000°24'214.3
2018-Feb-20 17:00N 50°28' W 000°20'714.0
2018-Feb-20 16:30N 50°30' W 000°10'813.7
2018-Feb-20 15:55N 50°32' E 000°02'512.5
2018-Feb-20 15:30N 50°34' E 000°10'612.7
2018-Feb-20 15:00N 50°35' E 000°19'612.5
2018-Feb-20 14:30N 50°37' E 000°29'611.8
2018-Feb-20 14:00N 50°39' E 000°37'611.6
2018-Feb-20 13:30N 50°43' E 000°45'611.2
2018-Feb-20 13:00N 50°46' E 000°52'1410.7
2018-Feb-20 11:42N 50°55' E 001°09'211.3
2018-Feb-20 11:30N 50°56' E 001°12'612.3
2018-Feb-20 11:00N 50°60' E 001°19'713.6
2018-Feb-20 10:30N 51°04' E 001°28'714.6
2018-Feb-20 10:01N 51°09' E 001°37'714.1
2018-Feb-20 09:30N 51°14' E 001°45'713.1
2018-Feb-20 09:00N 51°19' E 001°51'612.6
2018-Feb-20 08:30N 51°24' E 001°56'612.2
2018-Feb-20 07:59N 51°30' E 002°01'6110.8
2018-Feb-20 02:19N 52°03' E 003°25'411.9
2018-Feb-20 02:00N 52°03' E 003°31'611.9
2018-Feb-20 01:30N 52°03' E 003°41'612.1
2018-Feb-20 01:00N 52°03' E 003°51'510.9
2018-Feb-20 00:30N 52°01' E 003°59'713.4
2018-Feb-20 00:01N 51°58' E 004°09'713.3
2018-Feb-19 23:30N 51°54' E 004°17'4 8.9
2018-Feb-19 23:00N 51°53' E 004°24'1 1.8
2018-Feb-19 22:26N 51°53' E 004°26'0 0.0
2018-Feb-19 21:59N 51°53' E 004°26'0 0.0
2018-Feb-19 21:14N 51°53' E 004°26'0 0.0
2018-Feb-19 20:59N 51°53' E 004°26'0 0.0
2018-Feb-19 20:29N 51°53' E 004°26'0 0.0
2018-Feb-19 19:59N 51°53' E 004°26'0 0.0
2018-Feb-19 19:29N 51°53' E 004°26'0 0.0
2018-Feb-19 18:59N 51°53' E 004°26'0 0.0
2018-Feb-19 18:30N 51°53' E 004°26'0 0.9
2018-Feb-19 18:00N 51°53' E 004°25'0 0.0
2018-Feb-19 17:27N 51°53' E 004°25'0 0.0
2018-Feb-19 16:57N 51°53' E 004°25'0 0.0
2018-Feb-19 16:30N 51°53' E 004°25'0 0.0
2018-Feb-19 15:57N 51°53' E 004°25'0 0.0
2018-Feb-19 15:27N 51°53' E 004°25'0 0.0
2018-Feb-19 14:57N 51°53' E 004°25'0 0.0
2018-Feb-19 14:21N 51°53' E 004°25'0 0.0
2018-Feb-19 14:00N 51°53' E 004°25'0 0.0
2018-Feb-19 13:27N 51°53' E 004°25'0 0.0
2018-Feb-19 13:00N 51°53' E 004°25'0 0.0
2018-Feb-19 12:30N 51°53' E 004°25'0 0.3
2018-Feb-19 12:01N 51°53' E 004°25'3 6.9
2018-Feb-19 11:30N 51°54' E 004°19'5 9.2
2018-Feb-19 11:00N 51°56' E 004°13'510.8
2018-Feb-19 10:30N 51°59' E 004°05'2 3.8
2018-Feb-19 10:00N 51°58' E 004°02'0 0.0
2018-Feb-19 09:30N 51°58' E 004°02'0 0.1
2018-Feb-19 08:57N 51°58' E 004°02'0 0.0
2018-Feb-19 08:30N 51°58' E 004°02'0 0.0
2018-Feb-19 08:00N 51°58' E 004°02'0 0.0
2018-Feb-19 07:27N 51°58' E 004°02'0 0.0
2018-Feb-19 07:00N 51°58' E 004°02'0 0.0
2018-Feb-19 06:30N 51°58' E 004°02'0 0.0
2018-Feb-19 05:57N 51°58' E 004°02'0 0.0
2018-Feb-19 05:30N 51°58' E 004°02'0 0.0
2018-Feb-19 04:54N 51°58' E 004°02'0 0.3
2018-Feb-19 04:30N 51°58' E 004°03'2 3.3
2018-Feb-19 04:00N 51°57' E 004°04'0 0.4
2018-Feb-19 03:28N 51°57' E 004°04'0 0.0
2018-Feb-19 02:58N 51°57' E 004°04'0 0.0
2018-Feb-19 02:25N 51°57' E 004°04'0 0.0
2018-Feb-19 01:58N 51°57' E 004°04'0 0.0
2018-Feb-19 01:28N 51°57' E 004°04'0 0.0
2018-Feb-19 00:58N 51°57' E 004°04'0 0.0
2018-Feb-19 00:28N 51°57' E 004°04'0 0.0
2018-Feb-18 23:58N 51°57' E 004°04'0 0.0
2018-Feb-18 23:28N 51°57' E 004°04'0 0.0
2018-Feb-18 22:58N 51°57' E 004°04'0 0.0
2018-Feb-18 22:28N 51°57' E 004°04'0 0.0
2018-Feb-18 21:58N 51°57' E 004°04'0 0.0
2018-Feb-18 21:28N 51°57' E 004°04'0 0.0
2018-Feb-18 20:58N 51°57' E 004°04'0 0.0
2018-Feb-18 20:28N 51°57' E 004°04'0 0.0
2018-Feb-18 19:52N 51°57' E 004°04'0 0.0
2018-Feb-18 19:19N 51°57' E 004°04'0 0.0
2018-Feb-18 18:58N 51°57' E 004°04'0 0.0
2018-Feb-18 18:28N 51°57' E 004°04'0 0.0
2018-Feb-18 17:58N 51°57' E 004°04'0 0.0
2018-Feb-18 17:26N 51°57' E 004°04'0 0.6
2018-Feb-18 17:00N 51°57' E 004°04'3 5.2
2018-Feb-18 16:30N 51°59' E 004°01'1 2.5
2018-Feb-18 15:58N 51°57' E 003°60'0 0.0
2018-Feb-18 15:25N 51°57' E 003°60'0 0.0
2018-Feb-18 14:52N 51°57' E 003°60'0 0.0
2018-Feb-18 13:58N 51°57' E 003°60'0 0.0
2018-Feb-18 13:22N 51°57' E 003°60'0 0.0
2018-Feb-18 12:55N 51°57' E 003°60'0 0.0
2018-Feb-18 12:07N 51°57' E 003°60'0 0.0
2018-Feb-18 11:58N 51°57' E 003°60'0 0.0
2018-Feb-18 11:25N 51°57' E 003°60'0 0.0
2018-Feb-18 10:55N 51°57' E 003°60'0 0.0
2018-Feb-18 10:28N 51°57' E 003°60'0 0.0
2018-Feb-18 09:58N 51°57' E 003°60'0 0.0
2018-Feb-18 09:25N 51°57' E 003°60'0 0.0
2018-Feb-18 08:55N 51°57' E 003°60'0 0.0
2018-Feb-18 08:28N 51°57' E 003°60'0 0.0
2018-Feb-18 07:40N 51°57' E 003°60'0 0.0
2018-Feb-18 07:30N 51°57' E 003°60'2 3.6
2018-Feb-18 07:00N 51°58' E 004°02'3 5.4
2018-Feb-18 06:30N 51°59' E 004°06'713.1
2018-Feb-18 06:00N 51°55' E 004°15'5 9.8
2018-Feb-18 05:30N 51°54' E 004°23'2 4.1
2018-Feb-18 04:59N 51°53' E 004°25'0 0.0
2018-Feb-18 04:29N 51°53' E 004°25'0 0.0
2018-Feb-18 03:59N 51°53' E 004°25'0 0.0
2018-Feb-18 03:26N 51°53' E 004°25'0 0.0
2018-Feb-18 02:59N 51°53' E 004°25'0 0.0
2018-Feb-18 02:29N 51°53' E 004°25'0 0.0
2018-Feb-18 01:59N 51°53' E 004°25'0 0.0
2018-Feb-18 01:26N 51°53' E 004°25'0 0.0
2018-Feb-18 00:59N 51°53' E 004°25'0 0.0
2018-Feb-18 00:29N 51°53' E 004°25'0 0.0
2018-Feb-17 23:59N 51°53' E 004°25'0 0.0
2018-Feb-17 23:29N 51°53' E 004°25'0 0.0
2018-Feb-17 22:59N 51°53' E 004°25'1 1.3
2018-Feb-17 22:31N 51°53' E 004°25'4 8.2
2018-Feb-17 22:00N 51°54' E 004°18'611.5
2018-Feb-17 21:30N 51°57' E 004°10'612.0
2018-Feb-17 21:00N 51°60' E 004°02'713.0
2018-Feb-17 20:30N 52°00' E 003°51'2114.1
2018-Feb-17 19:00N 51°55' E 003°18'3115.7
2018-Feb-17 17:01N 51°42' E 002°32'117.0
2018-Feb-17 16:57N 51°41' E 002°31'817.1
2018-Feb-17 16:30N 51°35' E 002°23'917.4
2018-Feb-17 16:00N 51°28' E 002°14'917.4
2018-Feb-17 15:30N 51°21' E 002°08'917.3
2018-Feb-17 15:00N 51°14' E 002°01'918.3
2018-Feb-17 14:30N 51°09' E 001°48'13117.2
2018-Feb-17 06:52N 50°07' W 001°14'616.9
2018-Feb-17 06:30N 50°05' W 001°24'816.3
2018-Feb-17 06:00N 50°04' W 001°36'815.4
2018-Feb-17 05:30N 50°02' W 001°48'714.7
2018-Feb-17 05:00N 50°00' W 001°59'23212.4
2018-Feb-16 10:16N 51°23' W 007°40'414.6
2018-Feb-16 10:00N 51°26' W 007°45'714.7
2018-Feb-16 09:30N 51°31' W 007°53'714.7
2018-Feb-16 09:01N 51°36' W 008°01'713.2
2018-Feb-16 08:30N 51°41' W 008°08'611.7
2018-Feb-16 08:00N 51°45' W 008°14'510.7
2018-Feb-16 07:31N 51°51' W 008°16'4 7.8
2018-Feb-16 07:00N 51°53' W 008°21'3 5.0
2018-Feb-16 06:28N 51°54' W 008°25'0 0.0
2018-Feb-16 05:58N 51°54' W 008°25'0 0.0
2018-Feb-16 05:28N 51°54' W 008°25'0 0.0
2018-Feb-16 04:52N 51°54' W 008°25'0 0.0
2018-Feb-16 04:28N 51°54' W 008°25'0 0.0
2018-Feb-16 03:58N 51°54' W 008°25'0 0.0
2018-Feb-16 03:28N 51°54' W 008°25'0 0.0
2018-Feb-16 02:58N 51°54' W 008°25'0 0.0
2018-Feb-16 02:28N 51°54' W 008°25'0 0.0
2018-Feb-16 01:58N 51°54' W 008°25'0 0.0
2018-Feb-16 01:28N 51°54' W 008°25'0 0.0
2018-Feb-16 00:58N 51°54' W 008°25'0 0.0
2018-Feb-16 00:28N 51°54' W 008°25'0 0.0
2018-Feb-15 23:58N 51°54' W 008°25'0 0.0
2018-Feb-15 23:28N 51°54' W 008°25'0 0.0
2018-Feb-15 22:58N 51°54' W 008°25'0 0.0
2018-Feb-15 22:28N 51°54' W 008°25'0 0.0
2018-Feb-15 21:58N 51°54' W 008°25'0 0.0
2018-Feb-15 21:28N 51°54' W 008°25'0 0.0
2018-Feb-15 20:58N 51°54' W 008°25'0 0.0
2018-Feb-15 20:28N 51°54' W 008°25'0 0.0
2018-Feb-15 19:58N 51°54' W 008°25'0 0.0
2018-Feb-15 19:28N 51°54' W 008°25'0 0.0
2018-Feb-15 18:58N 51°54' W 008°25'0 0.0
2018-Feb-15 18:28N 51°54' W 008°25'0 0.0
2018-Feb-15 17:58N 51°54' W 008°25'0 0.0
2018-Feb-15 17:28N 51°54' W 008°25'0 0.0
2018-Feb-15 16:58N 51°54' W 008°25'0 0.0
2018-Feb-15 16:28N 51°54' W 008°25'0 0.0
2018-Feb-15 15:58N 51°54' W 008°25'0 0.0
2018-Feb-15 15:28N 51°54' W 008°25'0 0.0
2018-Feb-15 14:58N 51°54' W 008°25'0 0.0
2018-Feb-15 14:28N 51°54' W 008°25'0 0.0
2018-Feb-15 13:58N 51°54' W 008°25'0 0.0
2018-Feb-15 13:28N 51°54' W 008°25'0 0.0
2018-Feb-15 12:58N 51°54' W 008°25'0 0.0
2018-Feb-15 12:28N 51°54' W 008°25'0 0.0
2018-Feb-15 11:58N 51°54' W 008°25'0 0.0
2018-Feb-15 11:28N 51°54' W 008°25'0 0.0
2018-Feb-15 10:58N 51°54' W 008°25'0 0.0
2018-Feb-15 10:28N 51°54' W 008°25'0 0.0
2018-Feb-15 09:58N 51°54' W 008°25'0 0.1
2018-Feb-15 09:30N 51°54' W 008°25'2 3.2
2018-Feb-15 09:00N 51°53' W 008°23'4 7.7
2018-Feb-15 08:30N 51°51' W 008°18'4 7.1
2018-Feb-15 08:00N 51°48' W 008°16'5 9.4
2018-Feb-15 07:30N 51°43' W 008°12'611.5
2018-Feb-15 07:00N 51°39' W 008°05'510.8
2018-Feb-15 06:30N 51°36' W 007°59'510.6
2018-Feb-15 06:01N 51°32' W 007°53'510.7
2018-Feb-15 05:31N 51°29' W 007°46'510.3
2018-Feb-15 05:00N 51°25' W 007°40'8411.6
2018-Feb-14 21:44N 50°26' W 006°05'312.8
2018-Feb-14 21:29N 50°24' W 006°01'612.1
2018-Feb-14 21:00N 50°19' W 005°56'712.3
2018-Feb-14 20:25N 50°12' W 005°54'811.9
2018-Feb-14 19:45N 50°05' W 005°53'12 9.7
2018-Feb-14 18:34N 49°57' W 005°39'111.1
2018-Feb-14 18:29N 49°57' W 005°38'4310.1
2018-Feb-14 14:10N 49°55' W 004°30'210.6
2018-Feb-14 14:00N 49°56' W 004°28'810.3
2018-Feb-14 13:12N 49°56' W 004°15'1511.1
2018-Feb-14 11:52N 49°58' W 003°52'411.7
2018-Feb-14 11:30N 49°58' W 003°45'611.7
2018-Feb-14 10:59N 49°59' W 003°36'611.8
2018-Feb-14 10:30N 49°59' W 003°27'611.7
2018-Feb-14 10:00N 49°60' W 003°18'612.0
2018-Feb-14 09:30N 50°00' W 003°09'611.4
2018-Feb-14 09:01N 50°01' W 003°00'611.8
2018-Feb-14 08:31N 50°02' W 002°51'611.4
2018-Feb-14 08:01N 50°03' W 002°43'7512.7
2018-Feb-14 02:04N 50°23' W 000°49'114.6
2018-Feb-14 02:00N 50°23' W 000°48'1714.1
2018-Feb-14 00:49N 50°28' W 000°22'613.1
2018-Feb-14 00:19N 50°30' W 000°13'412.9
2018-Feb-14 00:00N 50°31' W 000°07'612.5
2018-Feb-13 23:31N 50°32' E 000°03'612.2
2018-Feb-13 23:01N 50°34' E 000°12'611.6
2018-Feb-13 22:30N 50°35' E 000°21'611.7
2018-Feb-13 22:00N 50°37' E 000°30'510.9
2018-Feb-13 21:31N 50°39' E 000°38'510.7
2018-Feb-13 21:01N 50°42' E 000°45'510.5
2018-Feb-13 20:30N 50°45' E 000°51'1310.8
2018-Feb-13 19:21N 50°53' E 001°07'412.4
2018-Feb-13 19:00N 50°56' E 001°12'612.7
2018-Feb-13 18:30N 50°60' E 001°20'713.3
2018-Feb-13 18:01N 51°04' E 001°28'714.9
2018-Feb-13 17:31N 51°09' E 001°37'714.5
2018-Feb-13 17:01N 51°14' E 001°45'713.4
2018-Feb-13 16:31N 51°20' E 001°51'612.8
2018-Feb-13 16:00N 51°25' E 001°55'612.1
2018-Feb-13 15:30N 51°31' E 002°00'6910.4
2018-Feb-13 08:51N 52°02' E 003°40'412.6
2018-Feb-13 08:30N 52°02' E 003°47'510.5
2018-Feb-13 08:00N 52°02' E 003°55'510.7
2018-Feb-13 07:30N 51°59' E 004°03'1 2.5
2018-Feb-13 07:00N 51°58' E 004°02'0 0.8
2018-Feb-13 06:29N 51°59' E 004°01'0 0.0
2018-Feb-13 05:59N 51°59' E 004°01'0 0.0
2018-Feb-13 05:26N 51°59' E 004°01'0 0.0
2018-Feb-13 04:59N 51°59' E 004°01'0 0.0
2018-Feb-13 04:26N 51°59' E 004°01'0 0.0
2018-Feb-13 03:59N 51°59' E 004°01'0 0.0
2018-Feb-13 03:29N 51°59' E 004°01'0 0.0
2018-Feb-13 02:47N 51°59' E 004°01'0 0.0
2018-Feb-13 02:23N 51°59' E 004°01'0 0.1
2018-Feb-13 01:59N 51°59' E 004°01'0 0.0
2018-Feb-13 01:29N 51°59' E 004°01'0 0.1
2018-Feb-13 00:59N 51°59' E 004°01'0 0.1
2018-Feb-13 00:29N 51°59' E 004°02'0 0.0
2018-Feb-12 23:53N 51°59' E 004°01'0 0.0
2018-Feb-12 23:29N 51°59' E 004°01'0 0.0
2018-Feb-12 22:53N 51°59' E 004°01'0 0.0
2018-Feb-12 22:29N 51°59' E 004°01'0 0.0
2018-Feb-12 22:00N 51°59' E 004°01'1 2.7
2018-Feb-12 21:30N 51°58' E 004°03'1 2.1
2018-Feb-12 20:59N 51°57' E 004°04'0 0.0
2018-Feb-12 20:30N 51°57' E 004°04'0 0.0
2018-Feb-12 20:00N 51°57' E 004°04'0 0.0
2018-Feb-12 19:27N 51°57' E 004°04'0 0.0
2018-Feb-12 18:54N 51°57' E 004°04'0 0.0
2018-Feb-12 18:30N 51°57' E 004°04'0 0.0
2018-Feb-12 17:54N 51°57' E 004°04'0 0.0
2018-Feb-12 17:27N 51°57' E 004°04'0 0.0
2018-Feb-12 17:00N 51°57' E 004°04'0 0.0
2018-Feb-12 16:27N 51°57' E 004°04'0 0.0
2018-Feb-12 15:57N 51°57' E 004°04'0 0.0
2018-Feb-12 15:12N 51°57' E 004°04'0 0.0
2018-Feb-12 14:51N 51°57' E 004°04'0 0.0
2018-Feb-12 13:54N 51°57' E 004°04'0 0.0
2018-Feb-12 13:30N 51°57' E 004°04'0 0.0
2018-Feb-12 12:57N 51°57' E 004°04'0 0.0
2018-Feb-12 12:30N 51°57' E 004°04'0 0.0
2018-Feb-12 12:00N 51°57' E 004°04'0 0.0
2018-Feb-12 11:18N 51°57' E 004°04'0 0.0
2018-Feb-12 11:00N 51°57' E 004°04'1 1.2
2018-Feb-12 10:30N 51°58' E 004°04'0 0.0
2018-Feb-12 09:45N 51°58' E 004°04'0 0.0
2018-Feb-12 09:18N 51°58' E 004°04'0 0.0
2018-Feb-12 09:00N 51°58' E 004°04'0 0.0
2018-Feb-12 08:27N 51°58' E 004°04'0 0.0
2018-Feb-12 07:57N 51°58' E 004°04'0 0.0
2018-Feb-12 07:30N 51°58' E 004°04'0 0.0
2018-Feb-12 07:00N 51°58' E 004°04'1 1.0
2018-Feb-12 06:30N 51°57' E 004°05'0 0.0
2018-Feb-12 06:00N 51°57' E 004°05'0 0.0
2018-Feb-12 05:30N 51°57' E 004°05'0 0.0
2018-Feb-12 05:00N 51°57' E 004°05'0 0.0
2018-Feb-12 04:27N 51°57' E 004°05'0 0.0
2018-Feb-12 03:54N 51°57' E 004°05'0 0.0
2018-Feb-12 03:30N 51°57' E 004°05'0 0.0
2018-Feb-12 03:00N 51°57' E 004°05'0 0.0
2018-Feb-12 02:30N 51°57' E 004°05'0 0.0
2018-Feb-12 02:00N 51°57' E 004°05'0 0.0
2018-Feb-12 01:30N 51°57' E 004°05'0 0.0
2018-Feb-12 00:54N 51°57' E 004°05'0 0.0
2018-Feb-12 00:24N 51°57' E 004°05'0 0.0
2018-Feb-12 00:00N 51°57' E 004°05'0 0.0
2018-Feb-11 23:30N 51°57' E 004°05'0 0.0
2018-Feb-11 23:00N 51°57' E 004°05'0 0.0
2018-Feb-11 22:30N 51°57' E 004°05'0 0.0
2018-Feb-11 22:00N 51°57' E 004°05'0 0.0
2018-Feb-11 21:27N 51°57' E 004°05'0 0.0
2018-Feb-11 20:57N 51°57' E 004°05'0 0.0
2018-Feb-11 20:30N 51°57' E 004°05'0 0.0
2018-Feb-11 20:00N 51°57' E 004°05'0 0.0
2018-Feb-11 19:30N 51°57' E 004°05'0 0.0
2018-Feb-11 19:00N 51°57' E 004°05'0 0.0
2018-Feb-11 18:27N 51°57' E 004°05'0 0.0
2018-Feb-11 17:48N 51°57' E 004°05'0 0.0
2018-Feb-11 17:27N 51°57' E 004°05'0 0.0
2018-Feb-11 17:00N 51°57' E 004°05'0 0.0
2018-Feb-11 16:30N 51°57' E 004°05'2 3.1
2018-Feb-11 16:00N 51°58' E 004°02'2 3.7
2018-Feb-11 15:30N 51°57' E 003°60'0 0.0
2018-Feb-11 14:21N 51°57' E 003°60'0 0.0
2018-Feb-11 14:00N 51°57' E 003°60'0 0.0
2018-Feb-11 13:21N 51°57' E 003°60'0 0.0
2018-Feb-11 13:00N 51°57' E 003°60'0 0.0
2018-Feb-11 12:27N 51°57' E 003°60'0 0.0
2018-Feb-11 12:00N 51°57' E 003°60'0 0.0
2018-Feb-11 11:30N 51°57' E 003°60'0 0.0
2018-Feb-11 10:48N 51°57' E 003°60'0 0.0
2018-Feb-11 10:24N 51°57' E 003°60'0 0.0
2018-Feb-11 10:00N 51°57' E 003°60'0 0.0
2018-Feb-11 09:30N 51°57' E 003°60'0 0.0
2018-Feb-11 09:00N 51°57' E 003°60'0 0.0
2018-Feb-11 08:27N 51°57' E 003°60'0 0.0
2018-Feb-11 07:57N 51°57' E 003°60'0 0.0
2018-Feb-11 07:30N 51°57' E 003°60'0 0.4
2018-Feb-11 07:00N 51°58' E 004°00'  
Track history (hours):
 
Tides and Currents Weather Stations Pressure Air Temp Water Temp Dewpoint Dewpoint Depression Visibility Wind Speed Wind Dir Waves Ship Positions

Ice Star

Last reported at 2018-Feb-21 07:00 UTC. Time now 2018-Feb-21 19:16 UTC.
Position N 49°54' W 004°38'.

Length 130 m; draft 6.1 m.

Type: Ship (hazmat cat A). MMSI: 305413000.

Date/timePositionNaut miles runAvg speedWind from/ knotsBaromVisibWave heightAir tempDewpointWater temp
2018-Feb-21 07:00N 49°54' W 004°38'611.3
2018-Feb-21 06:30N 49°55' W 004°29'611.6
2018-Feb-21 05:59N 49°56' W 004°20'2311.3
2018-Feb-21 03:57N 49°58' W 003°44'512.2
2018-Feb-21 03:30N 49°58' W 003°36'612.2
2018-Feb-21 03:00N 49°59' W 003°27'712.1
2018-Feb-21 02:26N 49°60' W 003°16'512.5
2018-Feb-21 02:00N 50°00' W 003°08'612.7
2018-Feb-21 01:30N 50°01' W 002°58'612.4
2018-Feb-21 01:00N 50°02' W 002°48'612.6
2018-Feb-21 00:30N 50°04' W 002°39'8912.2
2018-Feb-20 17:09N 50°27' W 000°24'214.3
2018-Feb-20 17:00N 50°28' W 000°20'714.0
2018-Feb-20 16:30N 50°30' W 000°10'813.7
2018-Feb-20 15:55N 50°32' E 000°02'512.5
2018-Feb-20 15:30N 50°34' E 000°10'612.7
2018-Feb-20 15:00N 50°35' E 000°19'612.5
2018-Feb-20 14:30N 50°37' E 000°29'611.8
2018-Feb-20 14:00N 50°39' E 000°37'611.6
2018-Feb-20 13:30N 50°43' E 000°45'611.2
2018-Feb-20 13:00N 50°46' E 000°52'1410.7
2018-Feb-20 11:42N 50°55' E 001°09'211.3
2018-Feb-20 11:30N 50°56' E 001°12'612.3
2018-Feb-20 11:00N 50°60' E 001°19'713.6
2018-Feb-20 10:30N 51°04' E 001°28'714.6
2018-Feb-20 10:01N 51°09' E 001°37'714.1
2018-Feb-20 09:30N 51°14' E 001°45'713.1
2018-Feb-20 09:00N 51°19' E 001°51'612.6
2018-Feb-20 08:30N 51°24' E 001°56'612.2
2018-Feb-20 07:59N 51°30' E 002°01'6110.8
2018-Feb-20 02:19N 52°03' E 003°25'411.9
2018-Feb-20 02:00N 52°03' E 003°31'611.9
2018-Feb-20 01:30N 52°03' E 003°41'612.1
2018-Feb-20 01:00N 52°03' E 003°51'510.9
2018-Feb-20 00:30N 52°01' E 003°59'713.4
2018-Feb-20 00:01N 51°58' E 004°09'713.3
2018-Feb-19 23:30N 51°54' E 004°17'4 8.9
2018-Feb-19 23:00N 51°53' E 004°24'1 1.8
2018-Feb-19 22:26N 51°53' E 004°26'0 0.0
2018-Feb-19 21:59N 51°53' E 004°26'0 0.0
2018-Feb-19 21:14N 51°53' E 004°26'0 0.0
2018-Feb-19 20:59N 51°53' E 004°26'0 0.0
2018-Feb-19 20:29N 51°53' E 004°26'0 0.0
2018-Feb-19 19:59N 51°53' E 004°26'0 0.0
2018-Feb-19 19:29N 51°53' E 004°26'0 0.0
2018-Feb-19 18:59N 51°53' E 004°26'0 0.0
2018-Feb-19 18:30N 51°53' E 004°26'0 0.9
2018-Feb-19 18:00N 51°53' E 004°25'0 0.0
2018-Feb-19 17:27N 51°53' E 004°25'0 0.0
2018-Feb-19 16:57N 51°53' E 004°25'0 0.0
2018-Feb-19 16:30N 51°53' E 004°25'0 0.0
2018-Feb-19 15:57N 51°53' E 004°25'0 0.0
2018-Feb-19 15:27N 51°53' E 004°25'0 0.0
2018-Feb-19 14:57N 51°53' E 004°25'0 0.0
2018-Feb-19 14:21N 51°53' E 004°25'0 0.0
2018-Feb-19 14:00N 51°53' E 004°25'0 0.0
2018-Feb-19 13:27N 51°53' E 004°25'0 0.0
2018-Feb-19 13:00N 51°53' E 004°25'0 0.0
2018-Feb-19 12:30N 51°53' E 004°25'0 0.3
2018-Feb-19 12:01N 51°53' E 004°25'3 6.9
2018-Feb-19 11:30N 51°54' E 004°19'5 9.2
2018-Feb-19 11:00N 51°56' E 004°13'510.8
2018-Feb-19 10:30N 51°59' E 004°05'2 3.8
2018-Feb-19 10:00N 51°58' E 004°02'0 0.0
2018-Feb-19 09:30N 51°58' E 004°02'0 0.1
2018-Feb-19 08:57N 51°58' E 004°02'0 0.0
2018-Feb-19 08:30N 51°58' E 004°02'0 0.0
2018-Feb-19 08:00N 51°58' E 004°02'0 0.0
2018-Feb-19 07:27N 51°58' E 004°02'0 0.0
2018-Feb-19 07:00N 51°58' E 004°02'0 0.0
2018-Feb-19 06:30N 51°58' E 004°02'0 0.0
2018-Feb-19 05:57N 51°58' E 004°02'0 0.0
2018-Feb-19 05:30N 51°58' E 004°02'0 0.0
2018-Feb-19 04:54N 51°58' E 004°02'0 0.3
2018-Feb-19 04:30N 51°58' E 004°03'2 3.3
2018-Feb-19 04:00N 51°57' E 004°04'0 0.4
2018-Feb-19 03:28N 51°57' E 004°04'0 0.0
2018-Feb-19 02:58N 51°57' E 004°04'0 0.0
2018-Feb-19 02:25N 51°57' E 004°04'0 0.0
2018-Feb-19 01:58N 51°57' E 004°04'0 0.0
2018-Feb-19 01:28N 51°57' E 004°04'0 0.0
2018-Feb-19 00:58N 51°57' E 004°04'0 0.0
2018-Feb-19 00:28N 51°57' E 004°04'0 0.0
2018-Feb-18 23:58N 51°57' E 004°04'0 0.0
2018-Feb-18 23:28N 51°57' E 004°04'0 0.0
2018-Feb-18 22:58N 51°57' E 004°04'0 0.0
2018-Feb-18 22:28N 51°57' E 004°04'0 0.0
2018-Feb-18 21:58N 51°57' E 004°04'0 0.0
2018-Feb-18 21:28N 51°57' E 004°04'0 0.0
2018-Feb-18 20:58N 51°57' E 004°04'0 0.0
2018-Feb-18 20:28N 51°57' E 004°04'0 0.0
2018-Feb-18 19:52N 51°57' E 004°04'0 0.0
2018-Feb-18 19:19N 51°57' E 004°04'0 0.0
2018-Feb-18 18:58N 51°57' E 004°04'0 0.0
2018-Feb-18 18:28N 51°57' E 004°04'0 0.0
2018-Feb-18 17:58N 51°57' E 004°04'0 0.0
2018-Feb-18 17:26N 51°57' E 004°04'0 0.6
2018-Feb-18 17:00N 51°57' E 004°04'3 5.2
2018-Feb-18 16:30N 51°59' E 004°01'1 2.5
2018-Feb-18 15:58N 51°57' E 003°60'0 0.0
2018-Feb-18 15:25N 51°57' E 003°60'0 0.0
2018-Feb-18 14:52N 51°57' E 003°60'0 0.0
2018-Feb-18 13:58N 51°57' E 003°60'0 0.0
2018-Feb-18 13:22N 51°57' E 003°60'0 0.0
2018-Feb-18 12:55N 51°57' E 003°60'0 0.0
2018-Feb-18 12:07N 51°57' E 003°60'0 0.0
2018-Feb-18 11:58N 51°57' E 003°60'0 0.0
2018-Feb-18 11:25N 51°57' E 003°60'0 0.0
2018-Feb-18 10:55N 51°57' E 003°60'0 0.0
2018-Feb-18 10:28N 51°57' E 003°60'0 0.0
2018-Feb-18 09:58N 51°57' E 003°60'0 0.0
2018-Feb-18 09:25N 51°57' E 003°60'0 0.0
2018-Feb-18 08:55N 51°57' E 003°60'0 0.0
2018-Feb-18 08:28N 51°57' E 003°60'0 0.0
2018-Feb-18 07:40N 51°57' E 003°60'0 0.0
2018-Feb-18 07:30N 51°57' E 003°60'2 3.6
2018-Feb-18 07:00N 51°58' E 004°02'3 5.4
2018-Feb-18 06:30N 51°59' E 004°06'713.1
2018-Feb-18 06:00N 51°55' E 004°15'5 9.8
2018-Feb-18 05:30N 51°54' E 004°23'2 4.1
2018-Feb-18 04:59N 51°53' E 004°25'0 0.0
2018-Feb-18 04:29N 51°53' E 004°25'0 0.0
2018-Feb-18 03:59N 51°53' E 004°25'0 0.0
2018-Feb-18 03:26N 51°53' E 004°25'0 0.0
2018-Feb-18 02:59N 51°53' E 004°25'0 0.0
2018-Feb-18 02:29N 51°53' E 004°25'0 0.0
2018-Feb-18 01:59N 51°53' E 004°25'0 0.0
2018-Feb-18 01:26N 51°53' E 004°25'0 0.0
2018-Feb-18 00:59N 51°53' E 004°25'0 0.0
2018-Feb-18 00:29N 51°53' E 004°25'0 0.0
2018-Feb-17 23:59N 51°53' E 004°25'0 0.0
2018-Feb-17 23:29N 51°53' E 004°25'0 0.0
2018-Feb-17 22:59N 51°53' E 004°25'1 1.3
2018-Feb-17 22:31N 51°53' E 004°25'4 8.2
2018-Feb-17 22:00N 51°54' E 004°18'611.5
2018-Feb-17 21:30N 51°57' E 004°10'612.0
2018-Feb-17 21:00N 51°60' E 004°02'713.0
2018-Feb-17 20:30N 52°00' E 003°51'2114.1
2018-Feb-17 19:00N 51°55' E 003°18'3115.7
2018-Feb-17 17:01N 51°42' E 002°32'117.0
2018-Feb-17 16:57N 51°41' E 002°31'817.1
2018-Feb-17 16:30N 51°35' E 002°23'917.4
2018-Feb-17 16:00N 51°28' E 002°14'917.4
2018-Feb-17 15:30N 51°21' E 002°08'917.3
2018-Feb-17 15:00N 51°14' E 002°01'918.3
2018-Feb-17 14:30N 51°09' E 001°48'13117.2
2018-Feb-17 06:52N 50°07' W 001°14'616.9
2018-Feb-17 06:30N 50°05' W 001°24'816.3
2018-Feb-17 06:00N 50°04' W 001°36'815.4
2018-Feb-17 05:30N 50°02' W 001°48'714.7
2018-Feb-17 05:00N 50°00' W 001°59'23212.4
2018-Feb-16 10:16N 51°23' W 007°40'414.6
2018-Feb-16 10:00N 51°26' W 007°45'714.7
2018-Feb-16 09:30N 51°31' W 007°53'714.7
2018-Feb-16 09:01N 51°36' W 008°01'713.2
2018-Feb-16 08:30N 51°41' W 008°08'611.7
2018-Feb-16 08:00N 51°45' W 008°14'510.7
2018-Feb-16 07:31N 51°51' W 008°16'4 7.8
2018-Feb-16 07:00N 51°53' W 008°21'3 5.0
2018-Feb-16 06:28N 51°54' W 008°25'0 0.0
2018-Feb-16 05:58N 51°54' W 008°25'0 0.0
2018-Feb-16 05:28N 51°54' W 008°25'0 0.0
2018-Feb-16 04:52N 51°54' W 008°25'0 0.0
2018-Feb-16 04:28N 51°54' W 008°25'0 0.0
2018-Feb-16 03:58N 51°54' W 008°25'0 0.0
2018-Feb-16 03:28N 51°54' W 008°25'0 0.0
2018-Feb-16 02:58N 51°54' W 008°25'0 0.0
2018-Feb-16 02:28N 51°54' W 008°25'0 0.0
2018-Feb-16 01:58N 51°54' W 008°25'0 0.0
2018-Feb-16 01:28N 51°54' W 008°25'0 0.0
2018-Feb-16 00:58N 51°54' W 008°25'0 0.0
2018-Feb-16 00:28N 51°54' W 008°25'0 0.0
2018-Feb-15 23:58N 51°54' W 008°25'0 0.0
2018-Feb-15 23:28N 51°54' W 008°25'0 0.0
2018-Feb-15 22:58N 51°54' W 008°25'0 0.0
2018-Feb-15 22:28N 51°54' W 008°25'0 0.0
2018-Feb-15 21:58N 51°54' W 008°25'0 0.0
2018-Feb-15 21:28N 51°54' W 008°25'0 0.0
2018-Feb-15 20:58N 51°54' W 008°25'0 0.0
2018-Feb-15 20:28N 51°54' W 008°25'0 0.0
2018-Feb-15 19:58N 51°54' W 008°25'0 0.0
2018-Feb-15 19:28N 51°54' W 008°25'0 0.0
2018-Feb-15 18:58N 51°54' W 008°25'0 0.0
2018-Feb-15 18:28N 51°54' W 008°25'0 0.0
2018-Feb-15 17:58N 51°54' W 008°25'0 0.0
2018-Feb-15 17:28N 51°54' W 008°25'0 0.0
2018-Feb-15 16:58N 51°54' W 008°25'0 0.0
2018-Feb-15 16:28N 51°54' W 008°25'0 0.0
2018-Feb-15 15:58N 51°54' W 008°25'0 0.0
2018-Feb-15 15:28N 51°54' W 008°25'0 0.0
2018-Feb-15 14:58N 51°54' W 008°25'0 0.0
2018-Feb-15 14:28N 51°54' W 008°25'0 0.0
2018-Feb-15 13:58N 51°54' W 008°25'0 0.0
2018-Feb-15 13:28N 51°54' W 008°25'0 0.0
2018-Feb-15 12:58N 51°54' W 008°25'0 0.0
2018-Feb-15 12:28N 51°54' W 008°25'0 0.0
2018-Feb-15 11:58N 51°54' W 008°25'0 0.0
2018-Feb-15 11:28N 51°54' W 008°25'0 0.0
2018-Feb-15 10:58N 51°54' W 008°25'0 0.0
2018-Feb-15 10:28N 51°54' W 008°25'0 0.0
2018-Feb-15 09:58N 51°54' W 008°25'0 0.1
2018-Feb-15 09:30N 51°54' W 008°25'2 3.2
2018-Feb-15 09:00N 51°53' W 008°23'4 7.7
2018-Feb-15 08:30N 51°51' W 008°18'4 7.1
2018-Feb-15 08:00N 51°48' W 008°16'5 9.4
2018-Feb-15 07:30N 51°43' W 008°12'611.5
2018-Feb-15 07:00N 51°39' W 008°05'510.8
2018-Feb-15 06:30N 51°36' W 007°59'510.6
2018-Feb-15 06:01N 51°32' W 007°53'510.7
2018-Feb-15 05:31N 51°29' W 007°46'510.3
2018-Feb-15 05:00N 51°25' W 007°40'8411.6
2018-Feb-14 21:44N 50°26' W 006°05'312.8
2018-Feb-14 21:29N 50°24' W 006°01'612.1
2018-Feb-14 21:00N 50°19' W 005°56'712.3
2018-Feb-14 20:25N 50°12' W 005°54'811.9
2018-Feb-14 19:45N 50°05' W 005°53'12 9.7
2018-Feb-14 18:34N 49°57' W 005°39'111.1
2018-Feb-14 18:29N 49°57' W 005°38'4310.1
2018-Feb-14 14:10N 49°55' W 004°30'210.6
2018-Feb-14 14:00N 49°56' W 004°28'810.3
2018-Feb-14 13:12N 49°56' W 004°15'1511.1
2018-Feb-14 11:52N 49°58' W 003°52'411.7
2018-Feb-14 11:30N 49°58' W 003°45'611.7
2018-Feb-14 10:59N 49°59' W 003°36'611.8
2018-Feb-14 10:30N 49°59' W 003°27'611.7
2018-Feb-14 10:00N 49°60' W 003°18'612.0
2018-Feb-14 09:30N 50°00' W 003°09'611.4
2018-Feb-14 09:01N 50°01' W 003°00'611.8
2018-Feb-14 08:31N 50°02' W 002°51'611.4
2018-Feb-14 08:01N 50°03' W 002°43'7512.7
2018-Feb-14 02:04N 50°23' W 000°49'114.6
2018-Feb-14 02:00N 50°23' W 000°48'1714.1
2018-Feb-14 00:49N 50°28' W 000°22'613.1
2018-Feb-14 00:19N 50°30' W 000°13'412.9
2018-Feb-14 00:00N 50°31' W 000°07'612.5
2018-Feb-13 23:31N 50°32' E 000°03'612.2
2018-Feb-13 23:01N 50°34' E 000°12'611.6
2018-Feb-13 22:30N 50°35' E 000°21'611.7
2018-Feb-13 22:00N 50°37' E 000°30'510.9
2018-Feb-13 21:31N 50°39' E 000°38'510.7
2018-Feb-13 21:01N 50°42' E 000°45'510.5
2018-Feb-13 20:30N 50°45' E 000°51'1310.8
2018-Feb-13 19:21N 50°53' E 001°07'412.4
2018-Feb-13 19:00N 50°56' E 001°12'612.7
2018-Feb-13 18:30N 50°60' E 001°20'713.3
2018-Feb-13 18:01N 51°04' E 001°28'714.9
2018-Feb-13 17:31N 51°09' E 001°37'714.5
2018-Feb-13 17:01N 51°14' E 001°45'713.4
2018-Feb-13 16:31N 51°20' E 001°51'612.8
2018-Feb-13 16:00N 51°25' E 001°55'612.1
2018-Feb-13 15:30N 51°31' E 002°00'6910.4
2018-Feb-13 08:51N 52°02' E 003°40'412.6
2018-Feb-13 08:30N 52°02' E 003°47'510.5
2018-Feb-13 08:00N 52°02' E 003°55'510.7
2018-Feb-13 07:30N 51°59' E 004°03'1 2.5
2018-Feb-13 07:00N 51°58' E 004°02'0 0.8
2018-Feb-13 06:29N 51°59' E 004°01'0 0.0
2018-Feb-13 05:59N 51°59' E 004°01'0 0.0
2018-Feb-13 05:26N 51°59' E 004°01'0 0.0
2018-Feb-13 04:59N 51°59' E 004°01'0 0.0
2018-Feb-13 04:26N 51°59' E 004°01'0 0.0
2018-Feb-13 03:59N 51°59' E 004°01'0 0.0
2018-Feb-13 03:29N 51°59' E 004°01'0 0.0
2018-Feb-13 02:47N 51°59' E 004°01'0 0.0
2018-Feb-13 02:23N 51°59' E 004°01'0 0.1
2018-Feb-13 01:59N 51°59' E 004°01'0 0.0
2018-Feb-13 01:29N 51°59' E 004°01'0 0.1
2018-Feb-13 00:59N 51°59' E 004°01'0 0.1
2018-Feb-13 00:29N 51°59' E 004°02'0 0.0
2018-Feb-12 23:53N 51°59' E 004°01'0 0.0
2018-Feb-12 23:29N 51°59' E 004°01'0 0.0
2018-Feb-12 22:53N 51°59' E 004°01'0 0.0
2018-Feb-12 22:29N 51°59' E 004°01'0 0.0
2018-Feb-12 22:00N 51°59' E 004°01'1 2.7
2018-Feb-12 21:30N 51°58' E 004°03'1 2.1
2018-Feb-12 20:59N 51°57' E 004°04'0 0.0
2018-Feb-12 20:30N 51°57' E 004°04'0 0.0
2018-Feb-12 20:00N 51°57' E 004°04'0 0.0
2018-Feb-12 19:27N 51°57' E 004°04'0 0.0
2018-Feb-12 18:54N 51°57' E 004°04'0 0.0
2018-Feb-12 18:30N 51°57' E 004°04'0 0.0
2018-Feb-12 17:54N 51°57' E 004°04'0 0.0
2018-Feb-12 17:27N 51°57' E 004°04'0 0.0
2018-Feb-12 17:00N 51°57' E 004°04'0 0.0
2018-Feb-12 16:27N 51°57' E 004°04'0 0.0
2018-Feb-12 15:57N 51°57' E 004°04'0 0.0
2018-Feb-12 15:12N 51°57' E 004°04'0 0.0
2018-Feb-12 14:51N 51°57' E 004°04'0 0.0
2018-Feb-12 13:54N 51°57' E 004°04'0 0.0
2018-Feb-12 13:30N 51°57' E 004°04'0 0.0
2018-Feb-12 12:57N 51°57' E 004°04'0 0.0
2018-Feb-12 12:30N 51°57' E 004°04'0 0.0
2018-Feb-12 12:00N 51°57' E 004°04'0 0.0
2018-Feb-12 11:18N 51°57' E 004°04'0 0.0
2018-Feb-12 11:00N 51°57' E 004°04'1 1.2
2018-Feb-12 10:30N 51°58' E 004°04'0 0.0
2018-Feb-12 09:45N 51°58' E 004°04'0 0.0
2018-Feb-12 09:18N 51°58' E 004°04'0 0.0
2018-Feb-12 09:00N 51°58' E 004°04'0 0.0
2018-Feb-12 08:27N 51°58' E 004°04'0 0.0
2018-Feb-12 07:57N 51°58' E 004°04'0 0.0
2018-Feb-12 07:30N 51°58' E 004°04'0 0.0
2018-Feb-12 07:00N 51°58' E 004°04'1 1.0
2018-Feb-12 06:30N 51°57' E 004°05'0 0.0
2018-Feb-12 06:00N 51°57' E 004°05'0 0.0
2018-Feb-12 05:30N 51°57' E 004°05'0 0.0
2018-Feb-12 05:00N 51°57' E 004°05'0 0.0
2018-Feb-12 04:27N 51°57' E 004°05'0 0.0
2018-Feb-12 03:54N 51°57' E 004°05'0 0.0
2018-Feb-12 03:30N 51°57' E 004°05'0 0.0
2018-Feb-12 03:00N 51°57' E 004°05'0 0.0
2018-Feb-12 02:30N 51°57' E 004°05'0 0.0
2018-Feb-12 02:00N 51°57' E 004°05'0 0.0
2018-Feb-12 01:30N 51°57' E 004°05'0 0.0
2018-Feb-12 00:54N 51°57' E 004°05'0 0.0
2018-Feb-12 00:24N 51°57' E 004°05'0 0.0
2018-Feb-12 00:00N 51°57' E 004°05'0 0.0
2018-Feb-11 23:30N 51°57' E 004°05'0 0.0
2018-Feb-11 23:00N 51°57' E 004°05'0 0.0
2018-Feb-11 22:30N 51°57' E 004°05'0 0.0
2018-Feb-11 22:00N 51°57' E 004°05'0 0.0
2018-Feb-11 21:27N 51°57' E 004°05'0 0.0
2018-Feb-11 20:57N 51°57' E 004°05'0 0.0
2018-Feb-11 20:30N 51°57' E 004°05'0 0.0
2018-Feb-11 20:00N 51°57' E 004°05'0 0.0
2018-Feb-11 19:30N 51°57' E 004°05'0 0.0
2018-Feb-11 19:00N 51°57' E 004°05'0 0.0
2018-Feb-11 18:27N 51°57' E 004°05'0 0.0
2018-Feb-11 17:48N 51°57' E 004°05'0 0.0
2018-Feb-11 17:27N 51°57' E 004°05'0 0.0
2018-Feb-11 17:00N 51°57' E 004°05'0 0.0
2018-Feb-11 16:30N 51°57' E 004°05'2 3.1
2018-Feb-11 16:00N 51°58' E 004°02'2 3.7
2018-Feb-11 15:30N 51°57' E 003°60'0 0.0
2018-Feb-11 14:21N 51°57' E 003°60'0 0.0
2018-Feb-11 14:00N 51°57' E 003°60'0 0.0
2018-Feb-11 13:21N 51°57' E 003°60'0 0.0
2018-Feb-11 13:00N 51°57' E 003°60'0 0.0
2018-Feb-11 12:27N 51°57' E 003°60'0 0.0
2018-Feb-11 12:00N 51°57' E 003°60'0 0.0
2018-Feb-11 11:30N 51°57' E 003°60'0 0.0
2018-Feb-11 10:48N 51°57' E 003°60'0 0.0
2018-Feb-11 10:24N 51°57' E 003°60'0 0.0
2018-Feb-11 10:00N 51°57' E 003°60'0 0.0
2018-Feb-11 09:30N 51°57' E 003°60'0 0.0
2018-Feb-11 09:00N 51°57' E 003°60'0 0.0
2018-Feb-11 08:27N 51°57' E 003°60'0 0.0
2018-Feb-11 07:57N 51°57' E 003°60'0 0.0
2018-Feb-11 07:30N 51°57' E 003°60'0 0.4
2018-Feb-11 07:00N 51°58' E 004°00'  

Dump ship's entire track history